Time;durP1;ratioP1;P1;durP2;ratioP2;P2;SDS_P1;SDS_P2;PMS_P1;PMS_P2;Temp;Humidity;BMP_temperature;BMP_pressure;BME280_temperature;BME280_humidity;BME280_pressure;Samples;Min_cycle;Max_cycle;Signal;HPM_P1;HPM_P2
2022/01/24 00:01:20;;;;;;;6.88;3.25;;;6.70;99.90;;;;;;4133735;28;20526;-81
2022/01/24 00:03:20;;;;;;;7.15;3.00;;;6.60;99.90;;;;;;4133523;28;20149;-81
2022/01/24 00:05:23;;;;;;;4.82;2.72;;;6.00;99.90;;;;;;4150288;28;20053;-82
2022/01/24 00:07:24;;;;;;;6.35;2.85;;;6.20;99.90;;;;;;4132663;28;20462;-82
2022/01/24 00:09:25;;;;;;;6.50;3.50;;;6.70;99.90;;;;;;4132759;28;20109;-81
2022/01/24 00:11:37;;;;;;;3.53;2.50;;;6.80;99.90;;;;;;4132992;28;20409;-82
2022/01/24 00:16:23;;;;;;;4.95;2.30;;;6.80;99.90;;;;;;4150029;28;20053;-82
2022/01/24 00:18:28;;;;;;;4.78;2.20;;;6.20;99.90;;;;;;4133882;28;20046;-81
2022/01/24 00:27:09;;;;;;;5.43;3.00;;;6.00;99.90;;;;;;4141185;28;20050;-81
2022/01/24 00:29:10;;;;;;;7.72;2.90;;;6.00;99.90;;;;;;4151952;28;20128;-81
2022/01/24 00:31:11;;;;;;;4.82;3.10;;;6.70;99.90;;;;;;4141855;28;20424;-81
2022/01/24 00:33:11;;;;;;;4.18;2.53;;;5.90;99.90;;;;;;4123950;28;20479;-81
2022/01/24 00:35:13;;;;;;;4.30;2.60;;;6.00;99.90;;;;;;4122908;28;20058;-81
2022/01/24 00:37:14;;;;;;;6.32;2.53;;;6.50;99.90;;;;;;4154337;28;20057;-81
2022/01/24 00:39:16;;;;;;;4.53;2.65;;;6.00;99.90;;;;;;4149912;28;20088;-81
2022/01/24 00:41:19;;;;;;;6.50;2.60;;;5.90;99.90;;;;;;4150469;28;20080;-81
2022/01/24 00:43:30;;;;;;;7.65;3.15;;;5.90;99.90;;;;;;4149647;28;20082;-81
2022/01/24 00:53:13;;;;;;;5.93;2.35;;;6.20;99.90;;;;;;4149695;28;20046;-82
2022/01/24 00:54:48;;;;;;;;;;;5.90;99.90;;;;;;4150545;28;20046;-81
2022/01/24 00:56:49;;;;;;;5.60;2.80;;;5.90;99.90;;;;;;4149941;28;19929;-81
2022/01/24 00:58:50;;;;;;;5.90;2.83;;;5.80;99.90;;;;;;4148897;28;20510;-81
2022/01/24 01:00:51;;;;;;;5.32;3.10;;;5.80;99.90;;;;;;4131330;28;20081;-81
2022/01/24 01:02:52;;;;;;;5.45;2.67;;;6.60;99.90;;;;;;4132480;28;20054;-82
2022/01/24 01:07:40;;;;;;;6.38;2.42;;;5.80;99.90;;;;;;4099098;29;20075;-81
2022/01/24 01:19:15;;;;;;;4.57;2.58;;;5.70;99.90;;;;;;4093055;29;19927;-81
2022/01/24 01:21:16;;;;;;;4.93;2.65;;;6.00;99.90;;;;;;4101997;28;20060;-81
2022/01/24 01:23:18;;;;;;;5.47;2.40;;;6.00;99.90;;;;;;4148452;28;20071;-81
2022/01/24 01:25:18;;;;;;;3.70;2.20;;;5.80;99.90;;;;;;4131400;28;20046;-81
2022/01/24 01:27:25;;;;;;;6.90;3.47;;;5.70;99.90;;;;;;4102708;28;20047;-82
2022/01/24 01:29:31;;;;;;;3.75;2.00;;;5.70;99.90;;;;;;4099507;29;20043;-82
2022/01/24 01:54:04;;;;;;;6.47;2.90;;;5.60;99.90;;;;;;4149773;28;20076;-82
2022/01/24 01:56:08;;;;;;;4.50;2.63;;;5.50;99.90;;;;;;4149701;28;20377;-82
2022/01/24 01:58:10;;;;;;;3.33;2.13;;;5.50;99.90;;;;;;4142185;28;20479;-82
2022/01/24 02:00:13;;;;;;;5.57;2.05;;;6.90;99.90;;;;;;4115771;28;20050;-82
2022/01/24 02:02:14;;;;;;;3.55;2.00;;;5.50;99.90;;;;;;4147362;28;20096;-82
2022/01/24 02:04:15;;;;;;;4.68;2.55;;;5.50;99.90;;;;;;4131883;28;20593;-82
2022/01/24 02:06:16;;;;;;;4.80;2.30;;;5.50;99.90;;;;;;4149599;28;20034;-82
2022/01/24 02:08:18;;;;;;;4.28;2.28;;;5.60;99.90;;;;;;4131848;28;20053;-82
2022/01/24 02:10:22;;;;;;;5.10;2.33;;;5.50;99.90;;;;;;4131653;28;20076;-82
2022/01/24 02:12:26;;;;;;;4.72;2.35;;;6.30;99.90;;;;;;4149466;28;20072;-82
2022/01/24 02:14:34;;;;;;;5.25;2.17;;;5.50;99.90;;;;;;4149309;28;20042;-82
2022/01/24 02:16:45;;;;;;;6.20;2.60;;;5.50;99.90;;;;;;4149140;28;20644;-82
2022/01/24 02:19:06;;;;;;;4.38;2.15;;;6.00;99.90;;;;;;4130562;28;20502;-82
2022/01/24 02:23:39;;;;;;;6.80;2.38;;;5.40;99.90;;;;;;4131718;28;20058;-82
2022/01/24 02:25:38;;;;;;;3.67;2.15;;;5.40;99.90;;;;;;4148823;28;20514;-82
2022/01/24 02:27:46;;;;;;;3.97;2.40;;;6.00;99.90;;;;;;4149073;28;20046;-82
2022/01/24 02:30:13;;;;;;;5.55;2.28;;;5.40;99.90;;;;;;4130733;28;20110;-82
2022/01/24 02:32:13;;;;;;;4.53;2.47;;;6.20;99.90;;;;;;4149307;28;20113;-82
2022/01/24 02:34:35;;;;;;;4.63;2.38;;;5.90;99.90;;;;;;4131143;28;20466;-82
2022/01/24 02:36:36;;;;;;;6.10;2.60;;;5.40;99.90;;;;;;4148864;28;20988;-82
2022/01/24 02:48:24;;;;;;;4.15;2.28;;;5.30;99.90;;;;;;4109930;28;20058;-82
2022/01/24 02:52:37;;;;;;;5.20;2.33;;;5.30;99.90;;;;;;4162484;28;20449;-82
2022/01/24 02:54:39;;;;;;;5.05;2.50;;;6.10;99.90;;;;;;4162722;28;20089;-82
2022/01/24 02:56:40;;;;;;;3.95;2.15;;;5.30;99.90;;;;;;4132129;28;20458;-82
2022/01/24 02:58:40;;;;;;;5.68;2.55;;;5.30;99.90;;;;;;4131522;28;20046;-82
2022/01/24 03:00:41;;;;;;;3.97;2.28;;;5.30;99.90;;;;;;4148601;28;20449;-82
2022/01/24 03:02:42;;;;;;;3.97;2.15;;;5.30;99.90;;;;;;4149041;28;20483;-82
2022/01/24 03:04:42;;;;;;;5.13;2.70;;;5.30;99.90;;;;;;4131303;28;20074;-82
2022/01/24 03:06:43;;;;;;;5.05;2.67;;;5.40;99.90;;;;;;4116877;28;20057;-82
2022/01/24 03:08:44;;;;;;;4.70;2.22;;;5.30;99.90;;;;;;4147058;28;20095;-82
2022/01/24 03:10:46;;;;;;;5.18;2.17;;;5.30;99.90;;;;;;4150510;28;20406;-82
2022/01/24 03:12:57;;;;;;;4.43;2.58;;;5.30;99.90;;;;;;4148343;28;20125;-82
2022/01/24 03:14:59;;;;;;;4.38;2.28;;;5.30;99.90;;;;;;4131102;28;20493;-82
2022/01/24 03:17:01;;;;;;;4.80;2.58;;;5.40;99.90;;;;;;4148325;28;20501;-82
2022/01/24 03:19:02;;;;;;;4.03;2.30;;;5.30;99.90;;;;;;4130890;28;20054;-82
2022/01/24 03:21:03;;;;;;;4.15;2.53;;;6.00;99.90;;;;;;4130338;28;20062;-82
2022/01/24 03:23:04;;;;;;;4.40;2.35;;;5.30;99.90;;;;;;4131351;28;20120;-82
2022/01/24 03:25:05;;;;;;;3.95;2.20;;;5.20;99.90;;;;;;4130390;28;20046;-82
2022/01/24 03:27:06;;;;;;;5.15;2.38;;;5.20;99.90;;;;;;4131005;28;20046;-82
2022/01/24 03:29:08;;;;;;;5.63;2.45;;;6.00;99.90;;;;;;4130906;28;20269;-82
2022/01/24 03:31:09;;;;;;;6.88;2.83;;;5.20;99.90;;;;;;4130574;28;20050;-82
2022/01/24 03:33:10;;;;;;;5.25;2.40;;;5.20;99.90;;;;;;4130930;28;20061;-82
2022/01/24 03:35:11;;;;;;;4.90;2.63;;;5.60;99.90;;;;;;4114641;28;20073;-82
2022/01/24 03:37:12;;;;;;;8.15;3.13;;;5.20;99.90;;;;;;4148156;28;20042;-82
2022/01/24 03:39:12;;;;;;;5.30;2.65;;;5.20;99.90;;;;;;4130201;28;20102;-82
2022/01/24 03:41:13;;;;;;;7.55;2.90;;;5.20;99.90;;;;;;4150241;28;20087;-82
2022/01/24 03:43:14;;;;;;;4.10;2.13;;;5.40;99.90;;;;;;4123429;28;20058;-82
2022/01/24 03:45:16;;;;;;;4.43;2.60;;;6.00;99.90;;;;;;4130009;28;20054;-82
2022/01/24 03:47:41;;;;;;;4.55;2.35;;;5.50;99.90;;;;;;4101646;29;20105;-82
2022/01/24 03:49:52;;;;;;;3.92;2.33;;;5.20;99.90;;;;;;4144774;28;20049;-82
2022/01/24 03:51:54;;;;;;;5.82;2.80;;;5.20;99.90;;;;;;4116790;28;20126;-82
2022/01/24 03:53:54;;;;;;;5.25;2.55;;;5.40;99.90;;;;;;4133958;28;20050;-82
2022/01/24 03:55:55;;;;;;;5.65;2.53;;;5.60;99.90;;;;;;4133613;28;20042;-82
2022/01/24 03:57:57;;;;;;;7.88;2.83;;;5.80;99.90;;;;;;4128077;28;20047;-82
2022/01/24 03:59:58;;;;;;;5.90;2.88;;;5.20;99.90;;;;;;4133254;28;20060;-82
2022/01/24 04:01:59;;;;;;;4.78;2.53;;;5.30;99.90;;;;;;4150275;28;20050;-82
2022/01/24 04:04:00;;;;;;;6.30;3.05;;;5.20;99.90;;;;;;4132939;28;20082;-82
2022/01/24 04:06:01;;;;;;;4.97;2.47;;;5.20;99.90;;;;;;4132838;28;20411;-82
2022/01/24 04:08:02;;;;;;;5.38;2.53;;;4.60;99.90;;;;;;4129480;28;20526;-82
2022/01/24 04:10:07;;;;;;;8.43;2.65;;;5.20;99.90;;;;;;4116798;28;20054;-82
2022/01/24 04:12:10;;;;;;;4.80;2.42;;;5.20;99.90;;;;;;4117438;28;20051;-82
2022/01/24 04:16:32;;;;;;;8.00;3.00;;;5.30;99.90;;;;;;4133070;28;20052;-82
2022/01/24 04:22:59;;;;;;;6.80;3.25;;;5.70;99.90;;;;;;4133282;28;20054;-82
2022/01/24 04:25:03;;;;;;;6.60;3.42;;;5.20;99.90;;;;;;4132486;28;20109;-82
2022/01/24 04:27:05;;;;;;;7.45;3.20;;;5.20;99.90;;;;;;4150274;28;20049;-83
2022/01/24 04:29:07;;;;;;;5.57;3.05;;;5.20;99.90;;;;;;4132977;28;20046;-82
2022/01/24 04:31:09;;;;;;;7.68;3.20;;;5.20;99.90;;;;;;4116247;28;20061;-82
2022/01/24 04:33:10;;;;;;;7.10;2.90;;;5.20;99.90;;;;;;4132757;28;20498;-82
2022/01/24 04:35:10;;;;;;;6.45;3.10;;;5.20;99.90;;;;;;4132612;28;20058;-82
2022/01/24 04:37:11;;;;;;;6.55;3.33;;;5.20;99.90;;;;;;4150067;28;20053;-82
2022/01/24 04:39:13;;;;;;;10.95;3.33;;;5.20;99.90;;;;;;4117015;28;20055;-81
2022/01/24 04:41:21;;;;;;;6.40;2.90;;;5.20;99.90;;;;;;4133137;28;20439;-82
2022/01/24 04:43:46;;;;;;;7.30;3.80;;;5.20;99.90;;;;;;4132169;28;20058;-82
2022/01/24 04:46:45;;;;;;;7.22;3.10;;;6.40;99.90;;;;;;4149683;28;20050;-81
2022/01/24 04:50:40;;;;;;;7.00;3.22;;;5.20;99.90;;;;;;4150349;28;20188;-82
2022/01/24 04:54:43;;;;;;;5.70;2.92;;;5.20;99.90;;;;;;4133772;28;20502;-81
2022/01/24 04:56:44;;;;;;;6.70;3.53;;;5.20;99.90;;;;;;4133222;28;20213;-82
2022/01/24 04:58:46;;;;;;;5.72;3.13;;;5.20;99.90;;;;;;4133502;28;20043;-82
2022/01/24 05:00:46;;;;;;;6.13;3.20;;;5.20;99.90;;;;;;4132426;28;20049;-82
2022/01/24 05:02:47;;;;;;;7.65;3.22;;;5.20;99.90;;;;;;4150390;28;20050;-82
2022/01/24 05:04:48;;;;;;;8.40;3.63;;;5.20;99.90;;;;;;4150350;28;20088;-82
2022/01/24 05:06:49;;;;;;;6.10;3.10;;;5.90;99.90;;;;;;4150715;28;20050;-82
2022/01/24 05:08:50;;;;;;;8.48;3.50;;;5.20;99.90;;;;;;4132561;28;20050;-82
2022/01/24 05:10:59;;;;;;;8.63;3.63;;;5.20;99.90;;;;;;4147097;28;20195;-82
2022/01/24 05:24:20;;;;;;;8.13;4.30;;;5.20;99.90;;;;;;4132776;28;20138;-82
2022/01/24 05:26:20;;;;;;;8.82;3.83;;;5.20;99.90;;;;;;4131746;28;20050;-82
2022/01/24 05:28:23;;;;;;;9.95;4.13;;;5.20;99.90;;;;;;4115913;28;20514;-82
2022/01/24 05:30:24;;;;;;;10.75;4.65;;;5.40;99.90;;;;;;4144251;28;20437;-82
2022/01/24 05:32:24;;;;;;;11.13;4.70;;;5.20;99.90;;;;;;4131629;28;20100;-82
2022/01/24 05:34:25;;;;;;;8.90;4.47;;;5.20;99.90;;;;;;4148536;28;20535;-82
2022/01/24 05:36:26;;;;;;;9.48;3.72;;;5.20;99.90;;;;;;4132333;28;20046;-82
2022/01/24 05:38:27;;;;;;;8.80;4.15;;;5.20;99.90;;;;;;4132563;28;20152;-82
2022/01/24 05:40:28;;;;;;;8.50;4.25;;;6.20;99.90;;;;;;4115529;28;20451;-82
2022/01/24 05:42:28;;;;;;;8.60;4.45;;;5.20;99.90;;;;;;4149417;28;20516;-82
2022/01/24 05:44:29;;;;;;;9.27;4.13;;;5.50;99.90;;;;;;4131850;28;20078;-82
2022/01/24 05:46:30;;;;;;;8.95;4.00;;;5.60;99.90;;;;;;4131373;28;20057;-82
2022/01/24 05:48:30;;;;;;;10.50;4.43;;;6.50;99.90;;;;;;4116505;28;20050;-82
2022/01/24 05:50:31;;;;;;;9.95;3.78;;;5.20;99.90;;;;;;4149902;28;20042;-82
2022/01/24 05:52:32;;;;;;;10.85;4.60;;;5.20;99.90;;;;;;4131941;28;20046;-82
2022/01/24 05:54:33;;;;;;;10.23;4.50;;;5.20;99.90;;;;;;4149843;28;20406;-82
2022/01/24 05:56:34;;;;;;;9.25;3.95;;;5.20;99.90;;;;;;4149060;28;20042;-82
2022/01/24 05:58:36;;;;;;;10.50;4.47;;;5.20;99.90;;;;;;4150033;28;20054;-82
2022/01/24 06:00:37;;;;;;;13.05;5.13;;;5.80;99.90;;;;;;4132613;28;20060;-82
2022/01/24 06:02:40;;;;;;;10.32;4.88;;;5.20;99.90;;;;;;4157821;28;20129;-82
2022/01/24 06:04:40;;;;;;;10.52;4.93;;;6.20;99.90;;;;;;4131405;28;20050;-82
2022/01/24 06:06:41;;;;;;;11.07;5.60;;;5.20;99.90;;;;;;4149435;28;20402;-82
2022/01/24 06:08:42;;;;;;;10.40;5.38;;;5.80;99.90;;;;;;4131912;28;20085;-82
2022/01/24 06:10:44;;;;;;;10.75;5.30;;;5.20;99.90;;;;;;4148793;28;20125;-82
2022/01/24 06:12:45;;;;;;;9.60;4.45;;;5.40;99.90;;;;;;4128978;28;20081;-81
2022/01/24 06:14:46;;;;;;;12.18;5.25;;;5.70;99.90;;;;;;4140598;28;20054;-81
2022/01/24 06:16:46;;;;;;;12.68;4.82;;;5.40;99.90;;;;;;4129655;28;20058;-81
2022/01/24 06:18:47;;;;;;;14.02;5.63;;;5.80;99.90;;;;;;4132004;28;20050;-81
2022/01/24 06:20:48;;;;;;;10.65;5.18;;;5.20;99.90;;;;;;4149239;28;20069;-81
2022/01/24 06:22:48;;;;;;;13.25;5.20;;;5.20;99.90;;;;;;4131345;28;20116;-81
2022/01/24 06:24:49;;;;;;;13.43;6.15;;;5.50;99.90;;;;;;4131944;28;20138;-81
2022/01/24 06:26:50;;;;;;;10.88;5.18;;;5.70;99.90;;;;;;4131904;28;20054;-81
2022/01/24 06:28:50;;;;;;;10.43;4.93;;;5.30;99.90;;;;;;4132172;28;20061;-81
2022/01/24 06:30:51;;;;;;;9.60;4.75;;;5.20;99.90;;;;;;4132428;28;20046;-81
2022/01/24 06:32:52;;;;;;;11.13;4.97;;;5.50;99.90;;;;;;4132644;28;20065;-82
2022/01/24 06:34:53;;;;;;;13.35;5.32;;;6.10;99.90;;;;;;4130996;28;20129;-81
2022/01/24 06:36:53;;;;;;;15.50;6.13;;;5.20;99.90;;;;;;4132183;28;20511;-81
2022/01/24 06:38:54;;;;;;;13.98;5.53;;;6.00;99.90;;;;;;4149655;28;20065;-81
2022/01/24 06:40:55;;;;;;;10.38;4.45;;;5.80;99.90;;;;;;4115953;28;20097;-81
2022/01/24 06:42:56;;;;;;;17.25;5.20;;;6.10;99.90;;;;;;4115946;28;20459;-82
2022/01/24 06:44:56;;;;;;;12.13;5.45;;;5.20;99.90;;;;;;4131764;28;20060;-81
2022/01/24 06:46:57;;;;;;;11.27;5.32;;;5.20;99.90;;;;;;4131440;28;20054;-81
2022/01/24 06:48:58;;;;;;;12.38;5.18;;;5.20;99.90;;;;;;4115396;28;20051;-81
2022/01/24 06:50:59;;;;;;;13.98;5.35;;;5.80;99.90;;;;;;4132021;28;20046;-81
2022/01/24 06:52:59;;;;;;;13.68;5.65;;;5.30;99.90;;;;;;4116345;28;20055;-81
2022/01/24 06:55:00;;;;;;;12.30;5.22;;;6.00;99.90;;;;;;4131338;28;20050;-81
2022/01/24 06:57:02;;;;;;;12.05;5.43;;;5.30;99.90;;;;;;4131501;28;20047;-81
2022/01/24 06:59:03;;;;;;;12.27;5.57;;;5.20;99.90;;;;;;4132942;28;20046;-81
2022/01/24 07:01:04;;;;;;;11.20;5.30;;;5.60;99.90;;;;;;4120251;28;20519;-81
2022/01/24 07:03:04;;;;;;;19.55;6.03;;;5.20;99.90;;;;;;4131616;28;20055;-81
2022/01/24 07:05:06;;;;;;;10.85;5.40;;;5.20;99.90;;;;;;4131354;28;20125;-81
2022/01/24 07:07:07;;;;;;;12.07;4.93;;;5.20;99.90;;;;;;4144984;28;20142;-81
2022/01/24 07:09:08;;;;;;;11.50;5.63;;;5.20;99.90;;;;;;4117836;28;20515;-81
2022/01/24 07:11:09;;;;;;;12.32;5.28;;;5.20;99.90;;;;;;4148435;28;20050;-81
2022/01/24 07:13:10;;;;;;;19.70;7.18;;;5.20;99.90;;;;;;4142580;28;20054;-81
2022/01/24 07:15:14;;;;;;;10.27;4.82;;;5.70;99.90;;;;;;4117791;28;20507;-81
2022/01/24 07:19:36;;;;;;;11.43;5.18;;;5.20;99.90;;;;;;4130098;28;20108;-81
2022/01/24 07:21:37;;;;;;;10.43;4.93;;;5.20;99.90;;;;;;4123736;28;20096;-81
2022/01/24 07:23:37;;;;;;;11.48;5.15;;;5.20;99.90;;;;;;4135027;28;20487;-81
2022/01/24 07:25:38;;;;;;;14.73;5.85;;;5.10;99.90;;;;;;4149645;28;20077;-81
2022/01/24 07:27:39;;;;;;;10.98;5.00;;;5.20;99.90;;;;;;4136050;28;20045;-81
2022/01/24 07:29:40;;;;;;;14.35;5.57;;;5.10;99.90;;;;;;4135953;28;20039;-81
2022/01/24 07:31:40;;;;;;;10.77;5.00;;;5.10;99.90;;;;;;4112606;28;20102;-81
2022/01/24 07:33:41;;;;;;;9.27;4.78;;;5.70;99.90;;;;;;4152741;28;20048;-81
2022/01/24 07:35:43;;;;;;;11.32;4.97;;;5.30;99.90;;;;;;4154748;28;20046;-81
2022/01/24 07:37:44;;;;;;;11.23;4.82;;;5.20;99.90;;;;;;4158523;28;20068;-81
2022/01/24 07:39:46;;;;;;;11.70;5.15;;;5.10;99.90;;;;;;4158815;28;20086;-82
2022/01/24 07:41:47;;;;;;;14.95;5.20;;;6.30;99.90;;;;;;4159027;28;20050;-81
2022/01/24 07:43:48;;;;;;;11.82;4.85;;;5.40;99.90;;;;;;4134089;28;20047;-81
2022/01/24 07:45:50;;;;;;;13.10;5.45;;;5.10;99.90;;;;;;4144117;28;20042;-81
2022/01/24 07:47:52;;;;;;;11.35;5.00;;;5.70;99.90;;;;;;4138071;28;20105;-81
2022/01/24 07:49:52;;;;;;;10.73;5.00;;;5.50;99.90;;;;;;4145892;28;20466;-81
2022/01/24 07:51:53;;;;;;;10.85;4.93;;;5.10;99.90;;;;;;4120605;28;20050;-82
2022/01/24 07:53:55;;;;;;;11.52;4.90;;;5.10;99.90;;;;;;4118400;28;20054;-82
2022/01/24 07:55:57;;;;;;;11.80;5.00;;;5.00;99.90;;;;;;4141830;28;20104;-82
2022/01/24 07:57:59;;;;;;;11.77;5.35;;;5.10;99.90;;;;;;4133558;28;20046;-81
2022/01/24 08:00:01;;;;;;;11.65;4.88;;;5.10;99.90;;;;;;4134790;28;20077;-82
2022/01/24 08:02:02;;;;;;;13.73;4.88;;;5.50;99.90;;;;;;4134661;28;20034;-82
2022/01/24 08:04:03;;;;;;;11.93;4.55;;;5.10;99.90;;;;;;4151726;28;20115;-82
2022/01/24 08:06:04;;;;;;;11.15;4.88;;;5.10;99.90;;;;;;4134625;28;20047;-81
2022/01/24 08:08:05;;;;;;;13.07;5.25;;;5.10;99.90;;;;;;4133700;28;20548;-81
2022/01/24 08:10:07;;;;;;;11.70;4.93;;;5.10;99.90;;;;;;4135549;28;20045;-82
2022/01/24 08:12:09;;;;;;;14.90;4.65;;;5.10;99.90;;;;;;4167295;28;20560;-82
2022/01/24 08:14:10;;;;;;;10.70;4.90;;;5.10;99.90;;;;;;4137155;28;20058;-82
2022/01/24 08:16:11;;;;;;;10.70;4.72;;;5.10;99.90;;;;;;4134337;28;20042;-81
2022/01/24 08:18:14;;;;;;;8.95;4.60;;;5.20;99.90;;;;;;4134362;28;20509;-81
2022/01/24 08:20:16;;;;;;;11.77;5.85;;;5.10;99.90;;;;;;4151166;28;20045;-81
2022/01/24 08:22:18;;;;;;;12.93;4.80;;;5.20;99.90;;;;;;4134326;28;20054;-82
2022/01/24 08:24:19;;;;;;;15.32;5.18;;;5.10;99.90;;;;;;4134048;28;20112;-82
2022/01/24 08:26:20;;;;;;;13.00;4.75;;;5.10;99.90;;;;;;4119700;28;20582;-82
2022/01/24 08:28:21;;;;;;;14.45;5.22;;;5.20;99.90;;;;;;4112227;28;20562;-81
2022/01/24 08:30:23;;;;;;;10.98;4.35;;;5.10;99.90;;;;;;4101372;29;20055;-83
2022/01/24 08:32:24;;;;;;;10.35;4.35;;;5.10;99.90;;;;;;4149441;28;20054;-83
2022/01/24 08:34:25;;;;;;;9.70;5.07;;;5.20;99.90;;;;;;4139143;28;20510;-83
2022/01/24 08:36:26;;;;;;;12.13;5.10;;;5.10;99.90;;;;;;4117379;28;20117;-82
2022/01/24 08:38:27;;;;;;;11.70;5.95;;;5.20;99.90;;;;;;4116853;28;20097;-83
2022/01/24 08:40:31;;;;;;;10.93;4.72;;;5.60;99.90;;;;;;4116756;28;20117;-83
2022/01/24 08:42:38;;;;;;;9.35;4.45;;;5.20;99.90;;;;;;4133415;28;20117;-82
2022/01/24 08:46:39;;;;;;;8.20;4.30;;;5.20;99.90;;;;;;4117288;28;20579;-82
2022/01/24 08:48:42;;;;;;;8.98;4.80;;;5.80;99.90;;;;;;4135955;28;20046;-83
2022/01/24 08:50:43;;;;;;;8.88;4.38;;;5.40;99.90;;;;;;4133482;28;20042;-83
2022/01/24 08:52:44;;;;;;;10.23;4.05;;;6.10;99.90;;;;;;4151260;28;20406;-84
2022/01/24 08:54:46;;;;;;;10.98;4.32;;;5.20;99.90;;;;;;4151230;28;20037;-83
2022/01/24 08:56:47;;;;;;;9.20;4.43;;;5.90;99.90;;;;;;4151388;28;20085;-83
2022/01/24 08:58:48;;;;;;;11.13;4.55;;;5.80;99.90;;;;;;4128589;28;20498;-83
2022/01/24 09:00:48;;;;;;;10.20;4.60;;;5.30;99.90;;;;;;4104716;28;20058;-83
2022/01/24 09:02:50;;;;;;;9.35;4.57;;;6.50;99.90;;;;;;4132731;28;20426;-82
2022/01/24 09:04:51;;;;;;;12.85;4.95;;;5.30;99.90;;;;;;4132742;28;20129;-83
2022/01/24 09:06:52;;;;;;;15.70;5.30;;;5.30;99.90;;;;;;4135596;28;20403;-84
2022/01/24 09:08:58;;;;;;;14.80;5.35;;;5.30;99.90;;;;;;4148422;28;20034;-82
2022/01/24 09:10:59;;;;;;;11.82;5.45;;;5.30;99.90;;;;;;4150630;28;20046;-83
2022/01/24 09:13:00;;;;;;;12.77;5.13;;;5.50;99.90;;;;;;4154192;28;20107;-83
2022/01/24 09:15:01;;;;;;;10.20;4.53;;;5.90;99.90;;;;;;4166878;28;20149;-82
2022/01/24 09:17:02;;;;;;;13.70;5.63;;;6.60;99.90;;;;;;4149656;28;20038;-82
2022/01/24 09:19:04;;;;;;;13.82;5.72;;;5.30;99.90;;;;;;4132930;28;20034;-83
2022/01/24 09:21:05;;;;;;;13.75;5.13;;;5.90;99.90;;;;;;4132881;28;20574;-82
2022/01/24 09:23:08;;;;;;;10.30;4.95;;;5.30;99.90;;;;;;4148356;28;20059;-82
2022/01/24 09:25:10;;;;;;;11.02;4.65;;;6.00;99.90;;;;;;4134959;28;20113;-83
2022/01/24 09:27:11;;;;;;;12.38;5.28;;;4.80;99.90;;;;;;4102321;28;20063;-83
2022/01/24 09:29:13;;;;;;;9.88;4.45;;;5.50;99.90;;;;;;4133392;28;20402;-82
2022/01/24 09:31:14;;;;;;;12.88;4.85;;;6.40;99.90;;;;;;4139324;28;20054;-83
2022/01/24 09:33:15;;;;;;;11.65;5.53;;;6.50;99.90;;;;;;4130787;28;20074;-82
2022/01/24 09:35:16;;;;;;;11.13;5.28;;;5.50;99.90;;;;;;4124232;28;20490;-83
2022/01/24 09:37:17;;;;;;;12.18;4.90;;;5.40;99.90;;;;;;4153108;28;20039;-83
2022/01/24 09:39:18;;;;;;;11.40;5.28;;;6.80;99.90;;;;;;4133591;28;20046;-82
2022/01/24 09:41:19;;;;;;;13.57;5.50;;;6.50;99.90;;;;;;4121701;28;20050;-83
2022/01/24 09:43:20;;;;;;;13.15;5.93;;;6.70;99.90;;;;;;4116466;28;20118;-82
2022/01/24 09:45:21;;;;;;;17.27;7.03;;;5.60;99.90;;;;;;4119094;28;20050;-83
2022/01/24 09:47:23;;;;;;;17.25;6.90;;;5.40;99.90;;;;;;4132750;28;20092;-83
2022/01/24 09:49:24;;;;;;;15.05;6.50;;;5.10;99.90;;;;;;4139736;28;20053;-82
2022/01/24 09:51:25;;;;;;;17.88;6.93;;;5.40;99.90;;;;;;4141984;28;20139;-83
2022/01/24 09:53:26;;;;;;;18.52;6.85;;;5.40;99.90;;;;;;4116315;28;20064;-83
2022/01/24 09:55:27;;;;;;;15.75;6.95;;;6.70;99.90;;;;;;4129531;28;20590;-83
2022/01/24 09:57:30;;;;;;;13.43;6.28;;;6.50;99.90;;;;;;4149916;28;20075;-83
2022/01/24 09:59:32;;;;;;;17.25;6.93;;;5.50;99.90;;;;;;4149852;28;20463;-83
2022/01/24 10:01:33;;;;;;;18.90;8.00;;;6.40;99.90;;;;;;4141207;28;20057;-83
2022/01/24 10:03:36;;;;;;;15.90;7.70;;;5.60;99.90;;;;;;4139979;28;20149;-83
2022/01/24 10:05:38;;;;;;;20.88;8.27;;;6.70;99.90;;;;;;4116124;28;20137;-83
2022/01/24 10:07:40;;;;;;;19.58;7.10;;;5.50;99.90;;;;;;4134208;28;20042;-82
2022/01/24 10:09:47;;;;;;;18.15;7.05;;;6.70;99.90;;;;;;4121606;28;20042;-87
2022/01/24 10:17:13;;;;;;;19.40;7.82;;;5.60;99.90;;;;;;4115589;28;20054;-80
2022/01/24 10:19:20;;;;;;;16.15;7.53;;;5.50;99.90;;;;;;4121925;28;20046;-83
2022/01/24 10:21:22;;;;;;;18.40;8.05;;;6.10;99.90;;;;;;4149406;28;20060;-83
2022/01/24 10:23:26;;;;;;;20.05;8.23;;;5.60;99.90;;;;;;4123731;28;20062;-83
2022/01/24 10:25:27;;;;;;;21.40;8.00;;;6.60;99.90;;;;;;4130343;28;20470;-82
2022/01/24 10:27:29;;;;;;;21.77;8.30;;;5.60;99.90;;;;;;4119239;28;20043;-82
2022/01/24 10:29:29;;;;;;;24.55;9.15;;;6.30;99.90;;;;;;4149467;28;20469;-82
2022/01/24 10:31:30;;;;;;;21.75;9.07;;;5.60;99.90;;;;;;4146534;28;20034;-83
2022/01/24 10:33:48;;;;;;;23.60;8.30;;;6.40;99.90;;;;;;4125179;28;20411;-84
2022/01/24 10:35:49;;;;;;;19.13;7.97;;;5.60;99.90;;;;;;4122776;28;20042;-82
2022/01/24 10:38:12;;;;;;;19.67;8.98;;;6.00;99.90;;;;;;4129968;28;20070;-83
2022/01/24 10:40:44;;;;;;;22.52;8.90;;;6.10;99.90;;;;;;4127103;28;20046;-82
2022/01/24 10:42:55;;;;;;;20.40;10.02;;;5.70;99.90;;;;;;4134932;28;20046;-83
2022/01/24 10:45:13;;;;;;;20.83;7.70;;;5.60;99.90;;;;;;4132384;28;20050;-85
2022/01/24 10:47:18;;;;;;;22.05;9.68;;;5.70;99.90;;;;;;4115125;28;20051;-83
2022/01/24 10:49:31;;;;;;;23.02;9.68;;;5.70;99.90;;;;;;4124805;28;20046;-83
2022/01/24 10:51:44;;;;;;;21.88;8.45;;;6.50;99.90;;;;;;4116760;28;20471;-84
2022/01/24 10:53:51;;;;;;;23.90;9.88;;;5.70;99.90;;;;;;4121239;28;20880;-84
2022/01/24 10:55:53;;;;;;;24.50;10.13;;;5.60;99.90;;;;;;4142366;28;20117;-84
2022/01/24 10:58:20;;;;;;;34.08;10.93;;;6.70;99.90;;;;;;4144512;28;20104;-84
2022/01/24 11:00:28;;;;;;;24.85;9.95;;;5.60;99.90;;;;;;4118263;28;20060;-83
2022/01/24 11:02:40;;;;;;;24.65;10.00;;;5.70;99.90;;;;;;4136372;28;20209;-84
2022/01/24 11:04:41;;;;;;;24.27;9.52;;;5.80;99.90;;;;;;4137126;28;20057;-84
2022/01/24 11:06:48;;;;;;;25.30;9.63;;;6.40;99.90;;;;;;4139291;28;20047;-83
2022/01/24 11:09:14;;;;;;;21.60;9.15;;;5.70;99.90;;;;;;4154917;28;20045;-83
2022/01/24 11:11:15;;;;;;;25.35;9.30;;;5.70;99.90;;;;;;4104570;29;20051;-84
2022/01/24 11:13:19;;;;;;;30.50;11.38;;;6.40;99.90;;;;;;4128141;28;20161;-83
2022/01/24 11:15:22;;;;;;;25.00;9.88;;;5.70;99.90;;;;;;4128794;28;20050;-82
2022/01/24 11:17:29;;;;;;;23.88;9.77;;;5.70;99.90;;;;;;4129031;28;20069;-83
2022/01/24 11:19:40;;;;;;;28.65;10.60;;;5.70;99.90;;;;;;4137020;28;20045;-83
2022/01/24 11:21:43;;;;;;;27.15;11.32;;;5.70;99.90;;;;;;4136936;28;20046;-82
2022/01/24 11:23:45;;;;;;;28.13;11.75;;;5.70;99.90;;;;;;4134098;28;20039;-83
2022/01/24 11:25:48;;;;;;;29.05;10.32;;;5.70;99.90;;;;;;4112448;28;20051;-83
2022/01/24 11:27:48;;;;;;;26.73;10.65;;;6.30;99.90;;;;;;4128152;28;20663;-83
2022/01/24 11:29:51;;;;;;;32.45;9.93;;;5.70;99.90;;;;;;4115763;28;20072;-83
2022/01/24 11:32:24;;;;;;;23.63;10.98;;;5.80;99.90;;;;;;4137868;28;20057;-83
2022/01/24 11:34:38;;;;;;;24.58;9.35;;;5.80;99.90;;;;;;4120811;28;20057;-83
2022/01/24 11:36:42;;;;;;;27.65;10.25;;;5.80;99.90;;;;;;4138104;28;20073;-83
2022/01/24 11:38:45;;;;;;;26.75;10.90;;;5.80;99.90;;;;;;4120675;28;20093;-83
2022/01/24 11:40:48;;;;;;;25.60;10.40;;;5.80;99.90;;;;;;4137520;28;20085;-83
2022/01/24 11:42:49;;;;;;;29.60;11.13;;;5.70;99.90;;;;;;4138000;28;20054;-83
2022/01/24 11:44:50;;;;;;;30.90;10.75;;;5.80;99.90;;;;;;4137468;28;20050;-83
2022/01/24 11:46:55;;;;;;;24.80;10.07;;;5.70;99.90;;;;;;4136453;28;20491;-83
2022/01/24 11:49:09;;;;;;;30.30;11.05;;;5.80;99.90;;;;;;4138022;28;20057;-83
2022/01/24 11:51:12;;;;;;;21.10;8.20;;;5.80;99.90;;;;;;4137402;28;20114;-83
2022/01/24 11:53:24;;;;;;;24.13;9.25;;;5.80;99.90;;;;;;4153597;28;20054;-83
2022/01/24 11:55:33;;;;;;;24.42;9.77;;;5.80;99.90;;;;;;4146305;28;20475;-83
2022/01/24 11:57:35;;;;;;;;;;;5.70;99.90;;;;;;4137603;28;20082;-83
2022/01/24 11:59:36;;;;;;;25.95;10.80;;;5.70;99.80;;;;;;4137250;28;20012;-82
2022/01/24 12:01:39;;;;;;;29.50;10.95;;;5.80;99.90;;;;;;4133824;28;20376;-82
2022/01/24 12:03:50;;;;;;;23.58;9.05;;;5.70;99.90;;;;;;4134618;28;20054;-82
2022/01/24 12:05:53;;;;;;;22.75;9.50;;;5.70;99.90;;;;;;4133934;28;20404;-81
2022/01/24 12:07:57;;;;;;;23.23;8.68;;;5.70;99.90;;;;;;4123211;28;20089;-82
2022/01/24 12:10:23;;;;;;;24.42;9.93;;;5.80;99.90;;;;;;4134409;28;20057;-82
2022/01/24 12:12:43;;;;;;;23.77;9.05;;;5.70;99.90;;;;;;4128793;28;20491;-82
2022/01/24 12:14:45;;;;;;;22.40;9.13;;;5.70;99.90;;;;;;4118695;28;20047;-82
2022/01/24 12:16:46;;;;;;;27.88;9.65;;;5.80;99.90;;;;;;4123242;28;20538;-82
2022/01/24 12:18:52;;;;;;;19.55;8.48;;;5.80;99.90;;;;;;4119766;28;20093;-82
2022/01/24 12:20:57;;;;;;;24.25;9.20;;;5.70;99.90;;;;;;4134248;28;20117;-82
2022/01/24 12:23:25;;;;;;;27.17;10.38;;;5.80;99.90;;;;;;4145421;28;20042;-82